createdAt,value
2022-09-21T00:02:49.059Z,101032.81
2022-09-21T00:07:51.966Z,101033.66
2022-09-21T00:12:57.452Z,101032.41
2022-09-21T00:18:28.418Z,101033.78
2022-09-21T00:23:31.043Z,101036.78
2022-09-21T00:28:35.194Z,101040.63
2022-09-21T00:33:37.931Z,101035.34
2022-09-21T00:38:40.950Z,101050.88
2022-09-21T00:43:48.067Z,101039.31
2022-09-21T00:48:50.729Z,101042.59
2022-09-21T00:54:04.988Z,101038.31
2022-09-21T00:59:10.418Z,101039.91
2022-09-21T01:04:14.556Z,101048.66
2022-09-21T01:09:33.512Z,101050.38
2022-09-21T01:14:51.776Z,101051.59
2022-09-21T01:20:30.375Z,101052.44
2022-09-21T01:26:12.537Z,101065.44
2022-09-21T01:31:21.853Z,101076.78
2022-09-21T01:36:27.154Z,101070.09
2022-09-21T01:41:31.588Z,101070.47
2022-09-21T01:46:37.408Z,101066.69
2022-09-21T01:51:43.627Z,101066.69
2022-09-21T01:56:49.199Z,101070.84
2022-09-21T02:01:56.288Z,101077.59
2022-09-21T02:06:58.962Z,101072.03
2022-09-21T02:12:02.274Z,101070.53
2022-09-21T02:17:17.332Z,101071.25
2022-09-21T02:22:34.234Z,101071.78
2022-09-21T02:27:42.152Z,101073.69
2022-09-21T02:32:50.343Z,101073.38
2022-09-21T02:37:56.863Z,101081.59
2022-09-21T02:43:02.607Z,101081.44
2022-09-21T02:48:09.708Z,101080.97
2022-09-21T02:53:18.312Z,101079.44
2022-09-21T02:58:23.130Z,101081.50
2022-09-21T03:03:27.130Z,101088.44
2022-09-21T03:08:30.318Z,101096.53
2022-09-21T03:13:33.256Z,101102.66
2022-09-21T03:18:37.261Z,101103.09
2022-09-21T03:23:39.962Z,101109.41
2022-09-21T03:28:42.651Z,101103.13
2022-09-21T03:33:46.654Z,101113.59
2022-09-21T03:38:49.221Z,101113.00
2022-09-21T03:43:52.034Z,101107.22
2022-09-21T03:48:56.302Z,101109.09
2022-09-21T03:53:58.999Z,101107.56
2022-09-21T03:59:01.763Z,101119.00
2022-09-21T04:04:06.047Z,101114.59
2022-09-21T04:09:08.917Z,101124.34
2022-09-21T04:14:12.532Z,101129.72
2022-09-21T04:19:16.910Z,101132.31
2022-09-21T04:24:19.645Z,101129.69
2022-09-21T04:29:22.646Z,101137.31
2022-09-21T04:34:26.833Z,101128.94
2022-09-21T04:39:29.408Z,101133.97
2022-09-21T04:44:32.017Z,101136.59
2022-09-21T04:49:36.139Z,101136.13
2022-09-21T04:54:38.739Z,101144.47
2022-09-21T04:59:41.853Z,101146.38
2022-09-21T05:04:50.659Z,101141.63
2022-09-21T05:10:06.115Z,101144.13
2022-09-21T05:15:10.447Z,101144.72
2022-09-21T05:20:14.593Z,101156.63
2022-09-21T05:25:17.484Z,101153.44
2022-09-21T05:30:21.627Z,101162.00
2022-09-21T05:35:28.447Z,101180.09
2022-09-21T05:40:31.744Z,101175.31
2022-09-21T05:45:35.336Z,101180.91
2022-09-21T05:50:43.942Z,101178.63
2022-09-21T05:55:50.879Z,101177.31
2022-09-21T06:01:03.287Z,101184.50
2022-09-21T06:06:09.699Z,101188.31
2022-09-21T06:11:12.624Z,101184.59
2022-09-21T06:16:15.275Z,101194.84
2022-09-21T06:21:19.400Z,101194.91
2022-09-21T06:26:22.524Z,101191.47
2022-09-21T06:31:25.124Z,101200.66
2022-09-21T06:36:29.311Z,101191.50
2022-09-21T06:41:32.017Z,101197.31
2022-09-21T06:46:35.000Z,101200.28
2022-09-21T06:51:39.183Z,101210.84
2022-09-21T06:56:43.197Z,101206.47
2022-09-21T07:01:45.991Z,101213.25
2022-09-21T07:06:50.017Z,101217.59
2022-09-21T07:11:52.916Z,101218.84
2022-09-21T07:16:55.493Z,101224.56
2022-09-21T07:21:59.554Z,101225.50
2022-09-21T07:27:02.180Z,101229.28
2022-09-21T07:32:05.703Z,101239.03
2022-09-21T07:37:09.692Z,101237.06
2022-09-21T07:42:12.308Z,101239.44
2022-09-21T07:47:15.237Z,101248.22
2022-09-21T07:52:19.600Z,101238.00
2022-09-21T07:57:40.259Z,101239.78
2022-09-21T08:02:47.538Z,101237.16
2022-09-21T08:07:53.011Z,101238.56
2022-09-21T08:12:55.615Z,101251.66
2022-09-21T08:17:58.860Z,101258.91
2022-09-21T08:23:02.860Z,101252.69
2022-09-21T08:28:09.687Z,101254.56
2022-09-21T08:33:12.979Z,101262.09
2022-09-21T08:38:16.973Z,101250.41
2022-09-21T08:43:25.081Z,101260.06
2022-09-21T08:48:35.830Z,101261.50
2022-09-21T08:53:42.345Z,101264.72
2022-09-21T08:58:44.898Z,101265.69
2022-09-21T09:04:08.685Z,101272.59
2022-09-21T09:09:26.756Z,101265.50
2022-09-21T09:14:45.644Z,101273.69
2022-09-21T09:19:51.248Z,101265.88
2022-09-21T09:24:58.665Z,101265.88
2022-09-21T09:30:05.372Z,101265.97
2022-09-21T09:35:17.775Z,101253.00
2022-09-21T09:40:31.982Z,101246.78
2022-09-21T09:45:47.331Z,101245.59
2022-09-21T09:50:50.089Z,101243.59
2022-09-21T09:55:55.824Z,101245.72
2022-09-21T10:00:59.111Z,101236.81
2022-09-21T10:06:01.818Z,101239.94
2022-09-21T10:11:06.286Z,101243.28
2022-09-21T10:16:14.272Z,101239.59
2022-09-21T10:21:19.143Z,101235.47
2022-09-21T10:26:23.153Z,101236.50
2022-09-21T10:31:27.542Z,101242.22
2022-09-21T10:36:33.068Z,101231.84
2022-09-21T10:41:38.037Z,101229.66
2022-09-21T10:46:40.865Z,101228.94
2022-09-21T10:51:46.012Z,101224.06
2022-09-21T10:56:59.331Z,101219.94
2022-09-21T11:02:03.477Z,101219.34
2022-09-21T11:07:13.279Z,101206.31
2022-09-21T11:12:44.239Z,101207.66
2022-09-21T11:17:55.119Z,101215.81
2022-09-21T11:23:05.495Z,101202.91
2022-09-21T11:28:15.090Z,101206.59
2022-09-21T11:33:31.318Z,101207.22
2022-09-21T11:38:43.302Z,101205.19
2022-09-21T11:44:02.996Z,101197.22
2022-09-21T11:49:20.584Z,101196.78
2022-09-21T11:54:49.039Z,101194.00
2022-09-21T12:00:11.546Z,101187.16
2022-09-21T12:05:17.852Z,101179.91
2022-09-21T12:10:37.735Z,101175.72
2022-09-21T12:15:50.227Z,101176.00
2022-09-21T12:20:57.527Z,101164.22
2022-09-21T12:26:02.537Z,101164.34
2022-09-21T12:31:12.055Z,101155.41
2022-09-21T12:36:17.924Z,101156.91
2022-09-21T12:41:25.810Z,101148.00
2022-09-21T12:46:32.515Z,101154.41
2022-09-21T12:51:36.667Z,101140.25
2022-09-21T12:56:44.649Z,101137.88
2022-09-21T13:01:57.172Z,101139.94
2022-09-21T13:07:25.275Z,101139.72
2022-09-21T13:12:33.286Z,101125.44
2022-09-21T13:17:37.381Z,101122.53
2022-09-21T13:22:40.060Z,101114.88
2022-09-21T13:28:01.259Z,101119.06
2022-09-21T13:33:23.351Z,101113.50
2022-09-21T13:38:27.085Z,101113.63
2022-09-21T13:44:05.198Z,101112.16
2022-09-21T13:49:19.563Z,101109.25
2022-09-21T13:54:25.566Z,101111.53
2022-09-21T13:59:29.016Z,101108.25
2022-09-21T14:04:37.595Z,101102.09
2022-09-21T14:09:43.230Z,101091.34
2022-09-21T14:15:24.130Z,101090.13
2022-09-21T14:20:39.524Z,101093.06
2022-09-21T14:25:50.765Z,101098.13
2022-09-21T14:30:57.279Z,101093.88
2022-09-21T14:36:03.574Z,101084.63
2022-09-21T14:41:08.605Z,101078.78
2022-09-21T14:46:47.659Z,101073.56
2022-09-21T14:52:22.265Z,101078.81
2022-09-21T14:57:43.258Z,101076.94
2022-09-21T15:02:46.022Z,101072.13
2022-09-21T15:08:13.661Z,101068.34
2022-09-21T15:13:25.623Z,101066.41
2022-09-21T15:18:28.251Z,101057.69
2022-09-21T15:23:33.854Z,101063.69
2022-09-21T15:29:04.962Z,101056.59
2022-09-21T15:34:05.881Z,101059.59
2022-09-21T15:39:22.641Z,101057.84
2022-09-21T15:44:30.203Z,101057.34
2022-09-21T15:49:34.996Z,101055.47
2022-09-21T15:54:42.590Z,101053.38
2022-09-21T15:59:47.348Z,101058.91
2022-09-21T16:04:50.863Z,101056.72
2022-09-21T16:09:55.005Z,101064.56
2022-09-21T16:15:04.075Z,101062.25
2022-09-21T16:20:17.265Z,101067.44
2022-09-21T16:25:34.391Z,101067.63
2022-09-21T16:30:42.313Z,101083.41
2022-09-21T16:35:44.976Z,101079.25
2022-09-21T16:40:51.768Z,101072.25
2022-09-21T16:45:54.359Z,101080.88
2022-09-21T16:50:56.956Z,101074.56
2022-09-21T16:56:00.888Z,101078.97
2022-09-21T17:01:03.561Z,101072.13
2022-09-21T17:06:06.943Z,101074.06
2022-09-21T17:11:11.044Z,101075.53
2022-09-21T17:16:18.126Z,101077.94
2022-09-21T17:21:20.845Z,101076.69
2022-09-21T17:26:25.044Z,101074.97
2022-09-21T17:31:28.130Z,101073.69
2022-09-21T17:36:30.806Z,101077.25
2022-09-21T17:41:40.990Z,101082.09
2022-09-21T17:46:48.781Z,101081.69
2022-09-21T17:52:09.321Z,101085.09
2022-09-21T17:57:18.885Z,101088.78
2022-09-21T18:02:24.455Z,101096.19
2022-09-21T18:07:27.689Z,101096.50
2022-09-21T18:12:46.354Z,101106.59
2022-09-21T18:17:59.944Z,101102.97
2022-09-21T18:23:10.621Z,101114.03
2022-09-21T18:28:23.723Z,101106.31
2022-09-21T18:33:33.190Z,101115.38
2022-09-21T18:38:38.781Z,101114.16
2022-09-21T18:43:54.523Z,101114.28
2022-09-21T18:49:02.530Z,101116.69
2022-09-21T18:54:05.512Z,101124.50
2022-09-21T18:59:12.970Z,101113.97
2022-09-21T19:04:17.123Z,101117.81
2022-09-21T19:09:32.141Z,101125.88
2022-09-21T19:14:40.687Z,101124.41
2022-09-21T19:19:49.592Z,101132.47
2022-09-21T19:24:58.461Z,101131.38
2022-09-21T19:30:07.576Z,101133.50
2022-09-21T19:35:17.756Z,101130.75
2022-09-21T19:40:22.943Z,101120.63
2022-09-21T19:45:30.925Z,101122.16
2022-09-21T19:50:41.010Z,101123.84
2022-09-21T19:56:02.292Z,101129.13
2022-09-21T20:01:06.794Z,101126.75
2022-09-21T20:06:14.993Z,101127.03
2022-09-21T20:11:22.028Z,101127.03
2022-09-21T20:16:35.833Z,101119.16
2022-09-21T20:21:40.045Z,101114.44
2022-09-21T20:26:42.887Z,101120.69
2022-09-21T20:31:47.817Z,101120.41
2022-09-21T20:36:50.687Z,101122.63
2022-09-21T20:41:58.331Z,101112.91
2022-09-21T20:47:02.700Z,101114.69
2022-09-21T20:52:05.693Z,101108.31
2022-09-21T20:57:08.420Z,101106.66
2022-09-21T21:02:13.484Z,101104.97
2022-09-21T21:07:17.237Z,101117.84
2022-09-21T21:12:20.393Z,101102.59
2022-09-21T21:17:24.320Z,101114.50
2022-09-21T21:22:26.913Z,101112.41
2022-09-21T21:27:29.540Z,101106.72
2022-09-21T21:32:33.530Z,101116.41
2022-09-21T21:37:36.131Z,101112.25
2022-09-21T21:42:38.754Z,101110.41
2022-09-21T21:47:42.735Z,101116.63
2022-09-21T21:52:45.368Z,101114.28
2022-09-21T21:57:47.979Z,101122.44
2022-09-21T22:02:51.994Z,101120.34
2022-09-21T22:07:54.734Z,101113.16
2022-09-21T22:13:00.724Z,101115.34
2022-09-21T22:18:05.108Z,101116.31
2022-09-21T22:23:09.018Z,101108.25
2022-09-21T22:28:11.670Z,101110.59
2022-09-21T22:33:15.672Z,101111.81
2022-09-21T22:38:18.617Z,101114.84
2022-09-21T22:43:24.747Z,101110.09
2022-09-21T22:48:29.185Z,101113.25
2022-09-21T22:53:32.624Z,101110.34
2022-09-21T22:58:36.737Z,101104.13
2022-09-21T23:03:42.202Z,101093.06
2022-09-21T23:08:49.792Z,101094.34
2022-09-21T23:13:52.447Z,101095.53
2022-09-21T23:18:57.728Z,101094.81
2022-09-21T23:24:01.303Z,101091.94
2022-09-21T23:29:08.827Z,101097.84
2022-09-21T23:34:13.155Z,101091.72
2022-09-21T23:39:16.646Z,101096.16
2022-09-21T23:44:19.459Z,101087.66
2022-09-21T23:49:23.613Z,101093.31
2022-09-21T23:54:26.673Z,101098.88
2022-09-21T23:59:29.314Z,101090.28
